Time,TemperatureF,DewpointF,PressureIn,WindDirection,WindDirectionDegrees,WindSpeedMPH,WindSpeedGustMPH,Humidity,HourlyPrecipIn,Conditions,Clouds,dailyrainin,SoftwareType,DateUTC
2013-04-27 00:03:00,51.0,34.0,30.29,West,274,0.0,-999.0,52,-99.99,,,-99.99,,2013-04-27 04:03:00,
2013-04-27 00:13:00,51.0,34.0,30.29,West,274,0.0,-999.0,52,-99.99,,,-99.99,,2013-04-27 04:13:00,
2013-04-27 00:23:00,51.0,34.0,30.29,West,274,0.0,-999.0,52,-99.99,,,-99.99,,2013-04-27 04:23:00,
2013-04-27 00:33:00,50.0,33.0,30.29,West,274,0.0,-999.0,51,-99.99,,,-99.99,,2013-04-27 04:33:00,
2013-04-27 00:43:00,50.0,33.0,30.29,West,274,0.0,-999.0,51,-99.99,,,-99.99,,2013-04-27 04:43:00,
2013-04-27 00:52:00,51.0,34.0,30.30,West,274,1.0,-999.0,52,-99.99,,,-99.99,,2013-04-27 04:52:00,
2013-04-27 01:02:00,52.0,34.0,30.30,NNW,331,2.0,-999.0,50,-99.99,,,-99.99,,2013-04-27 05:02:00,
2013-04-27 01:12:00,52.0,34.0,30.30,NNW,331,2.0,-999.0,50,-99.99,,,-99.99,,2013-04-27 05:12:00,
2013-04-27 01:22:00,51.0,33.0,30.29,NNW,332,2.0,-999.0,50,-99.99,,,-99.99,,2013-04-27 05:22:00,
2013-04-27 01:32:00,51.0,34.0,30.29,NNW,332,1.0,-999.0,51,-99.99,,,-99.99,,2013-04-27 05:32:00,
2013-04-27 01:42:00,51.0,34.0,30.29,NNW,332,1.0,-999.0,51,-99.99,,,-99.99,,2013-04-27 05:42:00,
2013-04-27 01:52:00,51.0,34.0,30.30,NNW,332,1.0,-999.0,51,-99.99,,,-99.99,,2013-04-27 05:52:00,
2013-04-27 02:02:00,51.0,34.0,30.30,NNW,332,1.0,-999.0,51,-99.99,,,-99.99,,2013-04-27 06:02:00,
2013-04-27 02:12:00,51.0,34.0,30.30,NNW,332,1.0,-999.0,51,-99.99,,,-99.99,,2013-04-27 06:12:00,
2013-04-27 02:22:00,50.0,33.0,30.30,NNW,332,0.0,-999.0,52,-99.99,,,-99.99,,2013-04-27 06:22:00,
2013-04-27 02:32:00,50.0,33.0,30.29,NNW,332,1.0,-999.0,52,-99.99,,,-99.99,,2013-04-27 06:32:00,
2013-04-27 02:42:00,50.0,33.0,30.29,NNW,332,1.0,-999.0,52,-99.99,,,-99.99,,2013-04-27 06:42:00,
2013-04-27 02:52:00,50.0,34.0,30.29,NNW,332,1.0,-999.0,53,-99.99,,,-99.99,,2013-04-27 06:52:00,
2013-04-27 03:02:00,49.0,33.0,30.29,NNW,332,0.0,-999.0,53,-99.99,,,-99.99,,2013-04-27 07:02:00,
2013-04-27 03:11:00,49.0,33.0,30.29,NNW,332,0.0,-999.0,53,-99.99,,,-99.99,,2013-04-27 07:11:00,
2013-04-27 03:21:00,48.0,34.0,30.29,NNW,332,0.0,-999.0,58,-99.99,,,-99.99,,2013-04-27 07:21:00,
2013-04-27 03:32:00,48.0,33.0,30.29,NNW,332,1.0,-999.0,56,-99.99,,,-99.99,,2013-04-27 07:32:00,
2013-04-27 03:42:00,48.0,33.0,30.29,NNW,332,1.0,-999.0,56,-99.99,,,-99.99,,2013-04-27 07:42:00,
2013-04-27 03:52:00,48.0,34.0,30.29,NNW,332,0.0,-999.0,57,-99.99,,,-99.99,,2013-04-27 07:52:00,
2013-04-27 04:02:00,47.0,33.0,30.29,NNW,332,0.0,-999.0,59,-99.99,,,-99.99,,2013-04-27 08:02:00,
2013-04-27 04:12:00,47.0,33.0,30.29,NNW,332,0.0,-999.0,59,-99.99,,,-99.99,,2013-04-27 08:12:00,
2013-04-27 04:21:00,47.0,34.0,30.29,NNW,332,0.0,-999.0,60,-99.99,,,-99.99,,2013-04-27 08:21:00,
2013-04-27 04:33:00,47.0,34.0,30.29,NNW,332,0.0,-999.0,60,-99.99,,,-99.99,,2013-04-27 08:33:00,
2013-04-27 04:42:00,47.0,34.0,30.29,NNW,332,0.0,-999.0,60,-99.99,,,-99.99,,2013-04-27 08:42:00,
2013-04-27 04:51:00,47.0,34.0,30.29,NNW,332,0.0,-999.0,61,-99.99,,,-99.99,,2013-04-27 08:51:00,
2013-04-27 05:01:00,47.0,35.0,30.29,NNW,332,0.0,-999.0,62,-99.99,,,-99.99,,2013-04-27 09:01:00,
2013-04-27 05:11:00,47.0,35.0,30.29,NNW,332,0.0,-999.0,62,-99.99,,,-99.99,,2013-04-27 09:11:00,
2013-04-27 05:21:00,46.0,34.0,30.29,NNW,332,0.0,-999.0,62,-99.99,,,-99.99,,2013-04-27 09:21:00,
2013-04-27 05:33:00,46.0,34.0,30.29,NNW,332,1.0,-999.0,63,-99.99,,,-99.99,,2013-04-27 09:33:00,
2013-04-27 05:43:00,46.0,34.0,30.29,NNW,332,1.0,-999.0,63,-99.99,,,-99.99,,2013-04-27 09:43:00,
2013-04-27 05:53:00,46.0,34.0,30.29,NNW,332,0.0,-999.0,63,-99.99,,,-99.99,,2013-04-27 09:53:00,
2013-04-27 06:03:00,45.0,34.0,30.30,NNW,332,0.0,-999.0,64,-99.99,,,-99.99,,2013-04-27 10:03:00,
2013-04-27 06:12:00,45.0,34.0,30.30,NNW,332,0.0,-999.0,64,-99.99,,,-99.99,,2013-04-27 10:12:00,
2013-04-27 06:22:00,45.0,34.0,30.29,NNW,332,0.0,-999.0,64,-99.99,,,-99.99,,2013-04-27 10:22:00,
2013-04-27 06:33:00,45.0,34.0,30.30,NNW,332,0.0,-999.0,65,-99.99,,,-99.99,,2013-04-27 10:33:00,
2013-04-27 06:42:00,45.0,34.0,30.30,NNW,332,0.0,-999.0,65,-99.99,,,-99.99,,2013-04-27 10:42:00,
2013-04-27 06:52:00,45.0,34.0,30.30,NNW,333,0.0,-999.0,65,-99.99,,,-99.99,,2013-04-27 10:52:00,
2013-04-27 07:02:00,45.0,34.0,30.31,NNW,333,0.0,-999.0,64,-99.99,,,-99.99,,2013-04-27 11:02:00,
2013-04-27 07:12:00,45.0,34.0,30.32,NNW,333,0.0,-999.0,64,-99.99,,,-99.99,,2013-04-27 11:12:00,
2013-04-27 07:22:00,45.0,34.0,30.32,NNW,333,0.0,-999.0,64,-99.99,,,-99.99,,2013-04-27 11:22:00,
2013-04-27 07:32:00,46.0,34.0,30.32,NNW,333,0.0,-999.0,63,-99.99,,,-99.99,,2013-04-27 11:32:00,
2013-04-27 07:42:00,46.0,34.0,30.32,NNW,333,0.0,-999.0,63,-99.99,,,-99.99,,2013-04-27 11:42:00,
2013-04-27 07:52:00,47.0,34.0,30.32,NNW,333,0.0,-999.0,60,-99.99,,,-99.99,,2013-04-27 11:52:00,
2013-04-27 08:01:00,49.0,35.0,30.32,NNW,340,1.0,-999.0,59,-99.99,,,-99.99,,2013-04-27 12:01:00,
2013-04-27 08:11:00,49.0,35.0,30.32,NNW,340,1.0,-999.0,59,-99.99,,,-99.99,,2013-04-27 12:11:00,
2013-04-27 08:22:00,51.0,35.0,30.32,ENE,60,2.0,-999.0,54,-99.99,,,-99.99,,2013-04-27 12:22:00,
2013-04-27 08:32:00,52.0,34.0,30.32,ENE,57,2.0,-999.0,51,-99.99,,,-99.99,,2013-04-27 12:32:00,
2013-04-27 08:42:00,52.0,34.0,30.32,ENE,57,2.0,-999.0,51,-99.99,,,-99.99,,2013-04-27 12:42:00,
2013-04-27 08:52:00,52.0,34.0,30.32,ENE,59,2.0,-999.0,51,-99.99,,,-99.99,,2013-04-27 12:52:00,
2013-04-27 09:02:00,53.0,34.0,30.33,East,94,2.0,-999.0,49,-99.99,,,-99.99,,2013-04-27 13:02:00,
2013-04-27 09:12:00,53.0,34.0,30.33,East,94,2.0,-999.0,49,-99.99,,,-99.99,,2013-04-27 13:12:00,
2013-04-27 09:22:00,54.0,35.0,30.33,ENE,67,1.0,-999.0,49,-99.99,,,-99.99,,2013-04-27 13:22:00,
2013-04-27 09:32:00,55.0,36.0,30.33,ENE,65,1.0,-999.0,49,-99.99,,,-99.99,,2013-04-27 13:32:00,
2013-04-27 09:42:00,55.0,36.0,30.33,ENE,65,1.0,-999.0,49,-99.99,,,-99.99,,2013-04-27 13:42:00,
2013-04-27 09:52:00,57.0,35.0,30.32,East,84,1.0,-999.0,44,-99.99,,,-99.99,,2013-04-27 13:52:00,
2013-04-27 10:02:00,57.0,35.0,30.33,ESE,111,1.0,-999.0,44,-99.99,,,-99.99,,2013-04-27 14:02:00,
2013-04-27 10:11:00,57.0,35.0,30.33,ESE,111,1.0,-999.0,44,-99.99,,,-99.99,,2013-04-27 14:11:00,
2013-04-27 10:21:00,58.0,36.0,30.32,ESE,117,0.0,-999.0,43,-99.99,,,-99.99,,2013-04-27 14:21:00,
2013-04-27 10:32:00,59.0,36.0,30.32,NNE,25,0.0,-999.0,42,-99.99,,,-99.99,,2013-04-27 14:32:00,
2013-04-27 10:42:00,59.0,36.0,30.32,NNE,25,0.0,-999.0,42,-99.99,,,-99.99,,2013-04-27 14:42:00,
2013-04-27 10:52:00,61.0,38.0,30.32,NE,46,0.0,-999.0,43,-99.99,,,-99.99,,2013-04-27 14:52:00,
2013-04-27 11:01:00,60.0,37.0,30.32,NE,55,1.0,-999.0,42,-99.99,,,-99.99,,2013-04-27 15:01:00,
2013-04-27 11:12:00,60.0,37.0,30.32,NE,55,1.0,-999.0,42,-99.99,,,-99.99,,2013-04-27 15:12:00,
2013-04-27 11:22:00,61.0,36.0,30.32,South,188,1.0,-999.0,39,-99.99,,,-99.99,,2013-04-27 15:22:00,
2013-04-27 11:33:00,61.0,36.0,30.32,South,174,1.0,-999.0,39,-99.99,,,-99.99,,2013-04-27 15:33:00,
2013-04-27 11:43:00,61.0,36.0,30.32,South,174,1.0,-999.0,39,-99.99,,,-99.99,,2013-04-27 15:43:00,
2013-04-27 11:52:00,62.0,37.0,30.30,SE,131,1.0,-999.0,39,-99.99,,,-99.99,,2013-04-27 15:52:00,
2013-04-27 12:03:00,63.0,36.0,30.30,West,261,1.0,-999.0,36,-99.99,,,-99.99,,2013-04-27 16:03:00,
2013-04-27 12:13:00,63.0,36.0,30.30,West,261,1.0,-999.0,36,-99.99,,,-99.99,,2013-04-27 16:13:00,
2013-04-27 12:22:00,64.0,39.0,30.30,SSW,207,1.0,-999.0,39,-99.99,,,-99.99,,2013-04-27 16:22:00,
2013-04-27 12:33:00,64.0,37.0,30.29,WNW,298,1.0,-999.0,37,-99.99,,,-99.99,,2013-04-27 16:33:00,
2013-04-27 12:42:00,64.0,37.0,30.29,WNW,298,1.0,-999.0,37,-99.99,,,-99.99,,2013-04-27 16:42:00,
2013-04-27 12:52:00,64.0,36.0,30.29,NW,323,0.0,-999.0,35,-99.99,,,-99.99,,2013-04-27 16:52:00,
2013-04-27 13:02:00,64.0,37.0,30.28,West,279,3.0,-999.0,36,-99.99,,,-99.99,,2013-04-27 17:02:00,
2013-04-27 13:12:00,64.0,37.0,30.28,West,279,3.0,-999.0,36,-99.99,,,-99.99,,2013-04-27 17:12:00,
2013-04-27 13:22:00,65.0,37.0,30.27,North,360,2.0,-999.0,35,-99.99,,,-99.99,,2013-04-27 17:22:00,
2013-04-27 13:32:00,65.0,35.0,30.27,NNW,346,2.0,-999.0,33,-99.99,,,-99.99,,2013-04-27 17:32:00,
2013-04-27 13:42:00,65.0,35.0,30.27,NNW,346,2.0,-999.0,33,-99.99,,,-99.99,,2013-04-27 17:42:00,
2013-04-27 13:53:00,66.0,36.0,30.26,NW,304,1.0,-999.0,33,-99.99,,,-99.99,,2013-04-27 17:53:00,
2013-04-27 14:02:00,66.0,36.0,30.25,East,83,1.0,-999.0,33,-99.99,,,-99.99,,2013-04-27 18:02:00,
2013-04-27 14:12:00,66.0,36.0,30.25,East,83,1.0,-999.0,33,-99.99,,,-99.99,,2013-04-27 18:12:00,
2013-04-27 14:22:00,67.0,36.0,30.24,South,188,2.0,-999.0,32,-99.99,,,-99.99,,2013-04-27 18:22:00,
2013-04-27 14:32:00,66.0,36.0,30.24,NNW,348,3.0,-999.0,33,-99.99,,,-99.99,,2013-04-27 18:32:00,
2013-04-27 14:42:00,66.0,36.0,30.24,NNW,348,3.0,-999.0,33,-99.99,,,-99.99,,2013-04-27 18:42:00,
2013-04-27 14:52:00,67.0,36.0,30.24,WNW,294,3.0,-999.0,32,-99.99,,,-99.99,,2013-04-27 18:52:00,
2013-04-27 15:02:00,67.0,38.0,30.23,WNW,292,2.0,-999.0,34,-99.99,,,-99.99,,2013-04-27 19:02:00,
2013-04-27 15:11:00,67.0,38.0,30.23,WNW,292,2.0,-999.0,34,-99.99,,,-99.99,,2013-04-27 19:11:00,
2013-04-27 15:22:00,67.0,36.0,30.22,East,81,1.0,-999.0,32,-99.99,,,-99.99,,2013-04-27 19:22:00,
2013-04-27 15:32:00,68.0,37.0,30.22,ENE,76,1.0,-999.0,32,-99.99,,,-99.99,,2013-04-27 19:32:00,
2013-04-27 15:42:00,68.0,37.0,30.22,ENE,76,1.0,-999.0,32,-99.99,,,-99.99,,2013-04-27 19:42:00,
2013-04-27 15:52:00,68.0,39.0,30.21,NE,46,2.0,-999.0,34,-99.99,,,-99.99,,2013-04-27 19:52:00,
2013-04-27 16:02:00,68.0,38.0,30.21,NNW,344,2.0,-999.0,33,-99.99,,,-99.99,,2013-04-27 20:02:00,
2013-04-27 16:11:00,68.0,38.0,30.21,NNW,344,2.0,-999.0,33,-99.99,,,-99.99,,2013-04-27 20:11:00,
2013-04-27 16:21:00,68.0,38.0,30.20,NE,56,1.0,-999.0,33,-99.99,,,-99.99,,2013-04-27 20:21:00,
2013-04-27 16:32:00,68.0,38.0,30.20,North,351,2.0,-999.0,33,-99.99,,,-99.99,,2013-04-27 20:32:00,
2013-04-27 16:42:00,68.0,38.0,30.20,North,351,2.0,-999.0,33,-99.99,,,-99.99,,2013-04-27 20:42:00,
2013-04-27 16:52:00,68.0,37.0,30.20,NNW,346,1.0,-999.0,32,-99.99,,,-99.99,,2013-04-27 20:52:00,
2013-04-27 17:02:00,68.0,38.0,30.19,NW,313,1.0,-999.0,33,-99.99,,,-99.99,,2013-04-27 21:02:00,
2013-04-27 17:12:00,68.0,38.0,30.19,NW,313,1.0,-999.0,33,-99.99,,,-99.99,,2013-04-27 21:12:00,
2013-04-27 17:21:00,69.0,39.0,30.19,SSW,204,1.0,-999.0,33,-99.99,,,-99.99,,2013-04-27 21:21:00,
2013-04-27 17:33:00,69.0,39.0,30.19,West,280,2.0,-999.0,33,-99.99,,,-99.99,,2013-04-27 21:33:00,
2013-04-27 17:43:00,69.0,39.0,30.19,West,280,2.0,-999.0,33,-99.99,,,-99.99,,2013-04-27 21:43:00,
2013-04-27 17:53:00,69.0,38.0,30.19,SW,227,1.0,-999.0,32,-99.99,,,-99.99,,2013-04-27 21:53:00,
2013-04-27 18:03:00,70.0,38.0,30.18,SW,227,0.0,-999.0,31,-99.99,,,-99.99,,2013-04-27 22:03:00,
2013-04-27 18:13:00,70.0,38.0,30.18,SW,227,0.0,-999.0,31,-99.99,,,-99.99,,2013-04-27 22:13:00,
2013-04-27 18:23:00,70.0,38.0,30.18,SW,227,1.0,-999.0,31,-99.99,,,-99.99,,2013-04-27 22:23:00,
2013-04-27 18:32:00,70.0,38.0,30.18,SW,227,1.0,-999.0,31,-99.99,,,-99.99,,2013-04-27 22:32:00,
2013-04-27 18:42:00,70.0,38.0,30.18,SW,227,1.0,-999.0,31,-99.99,,,-99.99,,2013-04-27 22:42:00,
2013-04-27 18:52:00,69.0,38.0,30.18,South,172,1.0,-999.0,32,-99.99,,,-99.99,,2013-04-27 22:52:00,
2013-04-27 19:02:00,68.0,37.0,30.17,SSW,198,2.0,-999.0,32,-99.99,,,-99.99,,2013-04-27 23:02:00,
2013-04-27 19:12:00,68.0,37.0,30.17,SSW,198,2.0,-999.0,32,-99.99,,,-99.99,,2013-04-27 23:12:00,
2013-04-27 19:22:00,68.0,38.0,30.17,SSW,198,3.0,-999.0,33,-99.99,,,-99.99,,2013-04-27 23:22:00,
2013-04-27 19:32:00,68.0,38.0,30.17,SSW,198,1.0,-999.0,33,-99.99,,,-99.99,,2013-04-27 23:32:00,
2013-04-27 19:42:00,68.0,38.0,30.17,SSW,198,1.0,-999.0,33,-99.99,,,-99.99,,2013-04-27 23:42:00,
2013-04-27 19:52:00,66.0,40.0,30.18,SSE,156,2.0,-999.0,38,-99.99,,,-99.99,,2013-04-27 23:52:00,
2013-04-27 20:01:00,64.0,40.0,30.18,South,182,3.0,-999.0,41,-99.99,,,-99.99,,2013-04-28 00:01:00,
2013-04-27 20:12:00,64.0,40.0,30.18,South,182,3.0,-999.0,41,-99.99,,,-99.99,,2013-04-28 00:12:00,
2013-04-27 20:21:00,63.0,39.0,30.18,SSW,204,3.0,-999.0,41,-99.99,,,-99.99,,2013-04-28 00:21:00,
2013-04-27 20:32:00,62.0,39.0,30.19,South,173,2.0,-999.0,42,-99.99,,,-99.99,,2013-04-28 00:32:00,
2013-04-27 20:43:00,62.0,39.0,30.19,South,173,2.0,-999.0,42,-99.99,,,-99.99,,2013-04-28 00:43:00,
2013-04-27 20:52:00,61.0,38.0,30.19,SSE,159,2.0,-999.0,43,-99.99,,,-99.99,,2013-04-28 00:52:00,
2013-04-27 21:02:00,60.0,37.0,30.19,SSW,198,2.0,-999.0,42,-99.99,,,-99.99,,2013-04-28 01:02:00,
2013-04-27 21:11:00,60.0,37.0,30.19,SSW,198,2.0,-999.0,42,-99.99,,,-99.99,,2013-04-28 01:11:00,
2013-04-27 21:22:00,59.0,37.0,30.19,South,175,2.0,-999.0,43,-99.99,,,-99.99,,2013-04-28 01:22:00,
2013-04-27 21:32:00,59.0,37.0,30.20,SSE,157,1.0,-999.0,44,-99.99,,,-99.99,,2013-04-28 01:32:00,
2013-04-27 21:42:00,59.0,37.0,30.20,SSE,157,1.0,-999.0,44,-99.99,,,-99.99,,2013-04-28 01:42:00,
2013-04-27 21:52:00,58.0,37.0,30.20,SSW,213,2.0,-999.0,45,-99.99,,,-99.99,,2013-04-28 01:52:00,
2013-04-27 22:02:00,58.0,37.0,30.20,South,189,2.0,-999.0,46,-99.99,,,-99.99,,2013-04-28 02:02:00,
2013-04-27 22:12:00,58.0,37.0,30.20,South,189,2.0,-999.0,46,-99.99,,,-99.99,,2013-04-28 02:12:00,
2013-04-27 22:22:00,57.0,37.0,30.20,SSW,196,0.0,-999.0,47,-99.99,,,-99.99,,2013-04-28 02:22:00,
2013-04-27 22:32:00,56.0,37.0,30.20,SSW,196,0.0,-999.0,49,-99.99,,,-99.99,,2013-04-28 02:32:00,
2013-04-27 22:42:00,56.0,37.0,30.20,SSW,196,0.0,-999.0,49,-99.99,,,-99.99,,2013-04-28 02:42:00,
2013-04-27 22:52:00,55.0,37.0,30.20,SSW,196,0.0,-999.0,51,-99.99,,,-99.99,,2013-04-28 02:52:00,
2013-04-27 23:01:00,55.0,38.0,30.20,SSW,196,0.0,-999.0,52,-99.99,,,-99.99,,2013-04-28 03:01:00,
2013-04-27 23:11:00,55.0,38.0,30.20,SSW,196,0.0,-999.0,52,-99.99,,,-99.99,,2013-04-28 03:11:00,
2013-04-27 23:21:00,54.0,37.0,30.20,SSW,196,0.0,-999.0,53,-99.99,,,-99.99,,2013-04-28 03:21:00,
2013-04-27 23:33:00,53.0,37.0,30.20,SSW,196,0.0,-999.0,55,-99.99,,,-99.99,,2013-04-28 03:33:00,
2013-04-27 23:43:00,53.0,37.0,30.20,SSW,196,0.0,-999.0,55,-99.99,,,-99.99,,2013-04-28 03:43:00,
2013-04-27 23:53:00,53.0,38.0,30.20,SSW,196,0.0,-999.0,56,-99.99,,,-99.99,,2013-04-28 03:53:00,